sensor_id;sensor_type;location;lat;lon;timestamp;P1;durP1;ratioP1;P2;durP2;ratioP2
11681;SDS011;5897;42.640;23.310;2022-08-19T00:02:00;4.45;;;4.00;;
11681;SDS011;5897;42.640;23.310;2022-08-19T00:04:28;4.78;;;4.05;;
11681;SDS011;5897;42.640;23.310;2022-08-19T00:06:57;4.20;;;3.80;;
11681;SDS011;5897;42.640;23.310;2022-08-19T00:09:25;4.53;;;3.90;;
11681;SDS011;5897;42.640;23.310;2022-08-19T00:11:53;4.38;;;3.97;;
11681;SDS011;5897;42.640;23.310;2022-08-19T00:14:21;4.60;;;4.15;;
11681;SDS011;5897;42.640;23.310;2022-08-19T00:16:50;4.43;;;4.00;;
11681;SDS011;5897;42.640;23.310;2022-08-19T00:19:19;4.90;;;4.18;;
11681;SDS011;5897;42.640;23.310;2022-08-19T00:21:47;4.50;;;3.97;;
11681;SDS011;5897;42.640;23.310;2022-08-19T00:24:14;4.95;;;4.32;;
11681;SDS011;5897;42.640;23.310;2022-08-19T00:26:42;5.45;;;4.18;;
11681;SDS011;5897;42.640;23.310;2022-08-19T00:29:10;4.22;;;3.92;;
11681;SDS011;5897;42.640;23.310;2022-08-19T00:31:38;4.68;;;4.10;;
11681;SDS011;5897;42.640;23.310;2022-08-19T00:34:07;4.00;;;3.70;;
11681;SDS011;5897;42.640;23.310;2022-08-19T00:36:33;4.20;;;3.90;;
11681;SDS011;5897;42.640;23.310;2022-08-19T00:39:00;4.53;;;3.92;;
11681;SDS011;5897;42.640;23.310;2022-08-19T00:41:27;4.85;;;4.20;;
11681;SDS011;5897;42.640;23.310;2022-08-19T00:43:58;4.50;;;4.10;;
11681;SDS011;5897;42.640;23.310;2022-08-19T00:46:27;4.05;;;3.75;;
11681;SDS011;5897;42.640;23.310;2022-08-19T00:48:54;5.07;;;4.10;;
11681;SDS011;5897;42.640;23.310;2022-08-19T00:51:24;6.55;;;3.80;;
11681;SDS011;5897;42.640;23.310;2022-08-19T00:53:54;4.90;;;4.50;;
11681;SDS011;5897;42.640;23.310;2022-08-19T00:56:23;4.43;;;3.90;;
11681;SDS011;5897;42.640;23.310;2022-08-19T00:58:51;4.05;;;3.70;;
11681;SDS011;5897;42.640;23.310;2022-08-19T01:01:20;4.60;;;4.20;;
11681;SDS011;5897;42.640;23.310;2022-08-19T01:03:47;4.40;;;4.10;;
11681;SDS011;5897;42.640;23.310;2022-08-19T01:06:14;5.47;;;3.75;;
11681;SDS011;5897;42.640;23.310;2022-08-19T01:08:42;4.22;;;3.83;;
11681;SDS011;5897;42.640;23.310;2022-08-19T01:11:09;4.40;;;4.00;;
11681;SDS011;5897;42.640;23.310;2022-08-19T01:13:35;4.35;;;3.95;;
11681;SDS011;5897;42.640;23.310;2022-08-19T01:16:03;5.00;;;4.53;;
11681;SDS011;5897;42.640;23.310;2022-08-19T01:18:35;4.47;;;4.07;;
11681;SDS011;5897;42.640;23.310;2022-08-19T01:21:05;6.60;;;4.30;;
11681;SDS011;5897;42.640;23.310;2022-08-19T01:23:42;4.40;;;4.00;;
11681;SDS011;5897;42.640;23.310;2022-08-19T01:26:10;4.63;;;4.03;;
11681;SDS011;5897;42.640;23.310;2022-08-19T01:28:38;4.28;;;3.95;;
11681;SDS011;5897;42.640;23.310;2022-08-19T01:31:09;4.45;;;3.95;;
11681;SDS011;5897;42.640;23.310;2022-08-19T01:33:39;4.78;;;4.38;;
11681;SDS011;5897;42.640;23.310;2022-08-19T01:36:06;5.70;;;4.30;;
11681;SDS011;5897;42.640;23.310;2022-08-19T01:38:36;5.28;;;4.38;;
11681;SDS011;5897;42.640;23.310;2022-08-19T01:41:06;6.07;;;4.20;;
11681;SDS011;5897;42.640;23.310;2022-08-19T01:43:33;4.18;;;3.88;;
11681;SDS011;5897;42.640;23.310;2022-08-19T01:46:01;5.70;;;4.10;;
11681;SDS011;5897;42.640;23.310;2022-08-19T01:48:32;4.80;;;4.40;;
11681;SDS011;5897;42.640;23.310;2022-08-19T01:51:00;6.30;;;4.80;;
11681;SDS011;5897;42.640;23.310;2022-08-19T01:53:27;4.57;;;4.18;;
11681;SDS011;5897;42.640;23.310;2022-08-19T01:55:54;4.90;;;4.32;;
11681;SDS011;5897;42.640;23.310;2022-08-19T01:58:23;4.32;;;3.92;;
11681;SDS011;5897;42.640;23.310;2022-08-19T02:00:55;5.05;;;4.55;;
11681;SDS011;5897;42.640;23.310;2022-08-19T02:03:22;5.10;;;4.60;;
11681;SDS011;5897;42.640;23.310;2022-08-19T02:05:53;5.00;;;4.50;;
11681;SDS011;5897;42.640;23.310;2022-08-19T02:08:21;5.10;;;4.60;;
11681;SDS011;5897;42.640;23.310;2022-08-19T02:10:48;5.00;;;4.57;;
11681;SDS011;5897;42.640;23.310;2022-08-19T02:13:15;4.85;;;4.45;;
11681;SDS011;5897;42.640;23.310;2022-08-19T02:15:43;4.80;;;4.40;;
11681;SDS011;5897;42.640;23.310;2022-08-19T02:18:10;5.63;;;4.93;;
11681;SDS011;5897;42.640;23.310;2022-08-19T02:20:38;5.72;;;4.60;;
11681;SDS011;5897;42.640;23.310;2022-08-19T02:23:06;5.28;;;4.63;;
11681;SDS011;5897;42.640;23.310;2022-08-19T02:25:33;6.35;;;4.15;;
11681;SDS011;5897;42.640;23.310;2022-08-19T02:28:00;4.88;;;4.25;;
11681;SDS011;5897;42.640;23.310;2022-08-19T02:30:27;4.47;;;4.05;;
11681;SDS011;5897;42.640;23.310;2022-08-19T02:32:55;5.28;;;4.25;;
11681;SDS011;5897;42.640;23.310;2022-08-19T02:35:22;5.20;;;4.70;;
11681;SDS011;5897;42.640;23.310;2022-08-19T02:37:50;4.70;;;4.30;;
11681;SDS011;5897;42.640;23.310;2022-08-19T02:40:34;5.35;;;4.22;;
11681;SDS011;5897;42.640;23.310;2022-08-19T02:43:03;4.60;;;4.20;;
11681;SDS011;5897;42.640;23.310;2022-08-19T02:45:32;4.88;;;4.47;;
11681;SDS011;5897;42.640;23.310;2022-08-19T02:48:01;6.03;;;3.88;;
11681;SDS011;5897;42.640;23.310;2022-08-19T02:50:29;4.72;;;4.25;;
11681;SDS011;5897;42.640;23.310;2022-08-19T02:52:56;6.82;;;4.10;;
11681;SDS011;5897;42.640;23.310;2022-08-19T02:55:22;5.78;;;4.55;;
11681;SDS011;5897;42.640;23.310;2022-08-19T02:57:49;5.03;;;4.50;;
11681;SDS011;5897;42.640;23.310;2022-08-19T03:00:16;4.47;;;4.07;;
11681;SDS011;5897;42.640;23.310;2022-08-19T03:02:43;4.70;;;4.30;;
11681;SDS011;5897;42.640;23.310;2022-08-19T03:05:11;6.85;;;4.78;;
11681;SDS011;5897;42.640;23.310;2022-08-19T03:07:38;4.95;;;4.32;;
11681;SDS011;5897;42.640;23.310;2022-08-19T03:10:05;6.50;;;4.80;;
11681;SDS011;5897;42.640;23.310;2022-08-19T03:12:35;5.50;;;4.50;;
11681;SDS011;5897;42.640;23.310;2022-08-19T03:15:03;6.00;;;4.57;;
11681;SDS011;5897;42.640;23.310;2022-08-19T03:17:31;5.68;;;4.50;;
11681;SDS011;5897;42.640;23.310;2022-08-19T03:19:57;5.20;;;4.80;;
11681;SDS011;5897;42.640;23.310;2022-08-19T03:22:26;5.53;;;4.32;;
11681;SDS011;5897;42.640;23.310;2022-08-19T03:24:53;5.28;;;4.88;;
11681;SDS011;5897;42.640;23.310;2022-08-19T03:27:20;5.45;;;4.93;;
11681;SDS011;5897;42.640;23.310;2022-08-19T03:29:47;5.22;;;4.38;;
11681;SDS011;5897;42.640;23.310;2022-08-19T03:32:14;6.25;;;4.60;;
11681;SDS011;5897;42.640;23.310;2022-08-19T03:34:40;5.82;;;4.65;;
11681;SDS011;5897;42.640;23.310;2022-08-19T03:37:08;5.03;;;4.53;;
11681;SDS011;5897;42.640;23.310;2022-08-19T03:39:38;5.60;;;5.10;;
11681;SDS011;5897;42.640;23.310;2022-08-19T03:42:07;6.90;;;5.22;;
11681;SDS011;5897;42.640;23.310;2022-08-19T03:44:34;5.55;;;5.03;;
11681;SDS011;5897;42.640;23.310;2022-08-19T03:47:02;6.97;;;5.13;;
11681;SDS011;5897;42.640;23.310;2022-08-19T03:49:31;7.43;;;5.43;;
11681;SDS011;5897;42.640;23.310;2022-08-19T03:52:00;6.60;;;5.90;;
11681;SDS011;5897;42.640;23.310;2022-08-19T03:54:27;6.68;;;6.00;;
11681;SDS011;5897;42.640;23.310;2022-08-19T03:56:56;7.22;;;5.72;;
11681;SDS011;5897;42.640;23.310;2022-08-19T03:59:24;8.27;;;5.80;;
11681;SDS011;5897;42.640;23.310;2022-08-19T04:01:52;9.20;;;6.32;;
11681;SDS011;5897;42.640;23.310;2022-08-19T04:04:20;6.80;;;5.80;;
11681;SDS011;5897;42.640;23.310;2022-08-19T04:06:47;8.55;;;6.45;;
11681;SDS011;5897;42.640;23.310;2022-08-19T04:09:16;6.75;;;5.95;;
11681;SDS011;5897;42.640;23.310;2022-08-19T04:11:45;6.20;;;5.60;;
11681;SDS011;5897;42.640;23.310;2022-08-19T04:14:15;9.35;;;5.10;;
11681;SDS011;5897;42.640;23.310;2022-08-19T04:16:44;6.82;;;6.13;;
11681;SDS011;5897;42.640;23.310;2022-08-19T04:19:11;6.18;;;5.53;;
11681;SDS011;5897;42.640;23.310;2022-08-19T04:21:39;7.20;;;5.65;;
11681;SDS011;5897;42.640;23.310;2022-08-19T04:24:06;6.53;;;5.60;;
11681;SDS011;5897;42.640;23.310;2022-08-19T04:26:35;5.88;;;5.30;;
11681;SDS011;5897;42.640;23.310;2022-08-19T04:29:04;8.43;;;5.53;;
11681;SDS011;5897;42.640;23.310;2022-08-19T04:31:35;5.68;;;5.15;;
11681;SDS011;5897;42.640;23.310;2022-08-19T04:34:02;5.53;;;4.80;;
11681;SDS011;5897;42.640;23.310;2022-08-19T04:36:33;6.30;;;4.90;;
11681;SDS011;5897;42.640;23.310;2022-08-19T04:39:02;5.55;;;5.03;;
11681;SDS011;5897;42.640;23.310;2022-08-19T04:41:31;9.07;;;5.93;;
11681;SDS011;5897;42.640;23.310;2022-08-19T04:44:16;5.65;;;5.13;;
11681;SDS011;5897;42.640;23.310;2022-08-19T04:46:45;6.78;;;5.72;;
11681;SDS011;5897;42.640;23.310;2022-08-19T04:49:13;9.88;;;6.03;;
11681;SDS011;5897;42.640;23.310;2022-08-19T04:51:42;8.77;;;6.15;;
11681;SDS011;5897;42.640;23.310;2022-08-19T04:54:10;6.30;;;5.70;;
11681;SDS011;5897;42.640;23.310;2022-08-19T04:56:38;10.25;;;5.25;;
11681;SDS011;5897;42.640;23.310;2022-08-19T04:59:06;8.98;;;5.53;;
11681;SDS011;5897;42.640;23.310;2022-08-19T05:01:35;7.00;;;5.53;;
11681;SDS011;5897;42.640;23.310;2022-08-19T05:04:05;12.00;;;6.63;;
11681;SDS011;5897;42.640;23.310;2022-08-19T05:06:33;19.42;;;7.15;;
11681;SDS011;5897;42.640;23.310;2022-08-19T05:09:01;12.60;;;6.70;;
11681;SDS011;5897;42.640;23.310;2022-08-19T05:11:30;12.77;;;6.43;;
11681;SDS011;5897;42.640;23.310;2022-08-19T05:13:59;11.65;;;6.90;;
11681;SDS011;5897;42.640;23.310;2022-08-19T05:16:26;15.05;;;6.90;;
11681;SDS011;5897;42.640;23.310;2022-08-19T05:18:53;9.23;;;6.85;;
11681;SDS011;5897;42.640;23.310;2022-08-19T05:21:40;9.98;;;6.70;;
11681;SDS011;5897;42.640;23.310;2022-08-19T05:24:25;11.77;;;7.32;;
11681;SDS011;5897;42.640;23.310;2022-08-19T05:26:53;11.20;;;6.38;;
11681;SDS011;5897;42.640;23.310;2022-08-19T05:29:22;10.48;;;6.15;;
11681;SDS011;5897;42.640;23.310;2022-08-19T05:31:51;13.18;;;5.85;;
11681;SDS011;5897;42.640;23.310;2022-08-19T05:34:19;13.15;;;6.93;;
11681;SDS011;5897;42.640;23.310;2022-08-19T05:36:51;8.82;;;6.15;;
11681;SDS011;5897;42.640;23.310;2022-08-19T05:39:22;8.15;;;5.63;;
11681;SDS011;5897;42.640;23.310;2022-08-19T05:41:51;11.82;;;6.30;;
11681;SDS011;5897;42.640;23.310;2022-08-19T05:44:19;11.65;;;6.15;;
11681;SDS011;5897;42.640;23.310;2022-08-19T05:46:47;9.63;;;6.22;;
11681;SDS011;5897;42.640;23.310;2022-08-19T05:49:18;13.40;;;6.93;;
11681;SDS011;5897;42.640;23.310;2022-08-19T05:51:47;9.02;;;6.03;;
11681;SDS011;5897;42.640;23.310;2022-08-19T05:54:16;14.75;;;6.55;;
11681;SDS011;5897;42.640;23.310;2022-08-19T05:56:44;12.43;;;6.25;;
11681;SDS011;5897;42.640;23.310;2022-08-19T05:59:13;11.18;;;6.68;;
11681;SDS011;5897;42.640;23.310;2022-08-19T06:01:42;14.95;;;6.80;;
11681;SDS011;5897;42.640;23.310;2022-08-19T06:04:10;11.68;;;7.30;;
11681;SDS011;5897;42.640;23.310;2022-08-19T06:06:38;13.10;;;7.38;;
11681;SDS011;5897;42.640;23.310;2022-08-19T06:09:06;14.52;;;7.13;;
11681;SDS011;5897;42.640;23.310;2022-08-19T06:11:37;16.67;;;7.47;;
11681;SDS011;5897;42.640;23.310;2022-08-19T06:14:06;10.45;;;6.60;;
11681;SDS011;5897;42.640;23.310;2022-08-19T06:16:35;12.15;;;6.47;;
11681;SDS011;5897;42.640;23.310;2022-08-19T06:19:04;9.38;;;6.30;;
11681;SDS011;5897;42.640;23.310;2022-08-19T06:21:33;12.45;;;6.40;;
11681;SDS011;5897;42.640;23.310;2022-08-19T06:24:02;12.57;;;6.22;;
11681;SDS011;5897;42.640;23.310;2022-08-19T06:26:30;10.20;;;6.15;;
11681;SDS011;5897;42.640;23.310;2022-08-19T06:28:58;8.07;;;5.50;;
11681;SDS011;5897;42.640;23.310;2022-08-19T06:31:26;6.85;;;5.22;;
11681;SDS011;5897;42.640;23.310;2022-08-19T06:33:54;6.65;;;5.18;;
11681;SDS011;5897;42.640;23.310;2022-08-19T06:36:22;7.47;;;5.05;;
11681;SDS011;5897;42.640;23.310;2022-08-19T06:38:52;6.38;;;4.90;;
11681;SDS011;5897;42.640;23.310;2022-08-19T06:41:19;5.97;;;5.22;;
11681;SDS011;5897;42.640;23.310;2022-08-19T06:43:46;7.75;;;4.97;;
11681;SDS011;5897;42.640;23.310;2022-08-19T06:46:15;8.77;;;4.72;;
11681;SDS011;5897;42.640;23.310;2022-08-19T06:48:43;7.63;;;5.25;;
11681;SDS011;5897;42.640;23.310;2022-08-19T06:51:10;6.78;;;4.80;;
11681;SDS011;5897;42.640;23.310;2022-08-19T06:53:40;8.55;;;5.55;;
11681;SDS011;5897;42.640;23.310;2022-08-19T06:56:12;9.60;;;6.18;;
11681;SDS011;5897;42.640;23.310;2022-08-19T06:58:39;8.57;;;5.88;;
11681;SDS011;5897;42.640;23.310;2022-08-19T07:01:06;7.13;;;5.40;;
11681;SDS011;5897;42.640;23.310;2022-08-19T07:03:36;8.88;;;6.05;;
11681;SDS011;5897;42.640;23.310;2022-08-19T07:06:04;7.38;;;5.65;;
11681;SDS011;5897;42.640;23.310;2022-08-19T07:08:32;10.48;;;5.80;;
11681;SDS011;5897;42.640;23.310;2022-08-19T07:11:01;9.50;;;5.82;;
11681;SDS011;5897;42.640;23.310;2022-08-19T07:13:29;8.00;;;5.40;;
11681;SDS011;5897;42.640;23.310;2022-08-19T07:16:02;9.00;;;6.07;;
11681;SDS011;5897;42.640;23.310;2022-08-19T07:18:30;9.57;;;5.88;;
11681;SDS011;5897;42.640;23.310;2022-08-19T07:21:03;8.88;;;5.43;;
11681;SDS011;5897;42.640;23.310;2022-08-19T07:23:30;10.07;;;5.32;;
11681;SDS011;5897;42.640;23.310;2022-08-19T07:25:57;7.40;;;5.30;;
11681;SDS011;5897;42.640;23.310;2022-08-19T07:28:24;7.97;;;6.00;;
11681;SDS011;5897;42.640;23.310;2022-08-19T07:30:51;8.65;;;6.15;;
11681;SDS011;5897;42.640;23.310;2022-08-19T07:33:18;7.85;;;5.57;;
11681;SDS011;5897;42.640;23.310;2022-08-19T07:35:45;7.43;;;5.75;;
11681;SDS011;5897;42.640;23.310;2022-08-19T07:38:13;12.95;;;5.75;;
11681;SDS011;5897;42.640;23.310;2022-08-19T07:40:41;9.10;;;5.60;;
11681;SDS011;5897;42.640;23.310;2022-08-19T07:43:08;13.55;;;5.65;;
11681;SDS011;5897;42.640;23.310;2022-08-19T07:45:34;10.10;;;5.32;;
11681;SDS011;5897;42.640;23.310;2022-08-19T07:48:01;9.23;;;5.30;;
11681;SDS011;5897;42.640;23.310;2022-08-19T07:50:29;7.60;;;5.35;;
11681;SDS011;5897;42.640;23.310;2022-08-19T07:52:55;9.63;;;5.40;;
11681;SDS011;5897;42.640;23.310;2022-08-19T07:55:24;9.73;;;4.97;;
11681;SDS011;5897;42.640;23.310;2022-08-19T07:57:51;6.32;;;5.10;;
11681;SDS011;5897;42.640;23.310;2022-08-19T08:00:18;6.55;;;5.28;;
11681;SDS011;5897;42.640;23.310;2022-08-19T08:02:46;10.27;;;5.05;;
11681;SDS011;5897;42.640;23.310;2022-08-19T08:05:12;11.45;;;5.15;;
11681;SDS011;5897;42.640;23.310;2022-08-19T08:07:57;8.63;;;5.15;;
11681;SDS011;5897;42.640;23.310;2022-08-19T08:10:42;7.25;;;4.72;;
11681;SDS011;5897;42.640;23.310;2022-08-19T08:13:09;5.47;;;4.75;;
11681;SDS011;5897;42.640;23.310;2022-08-19T08:15:35;10.50;;;5.32;;
11681;SDS011;5897;42.640;23.310;2022-08-19T08:18:04;8.43;;;4.80;;
11681;SDS011;5897;42.640;23.310;2022-08-19T08:20:31;6.47;;;4.85;;
11681;SDS011;5897;42.640;23.310;2022-08-19T08:22:57;7.70;;;4.97;;
11681;SDS011;5897;42.640;23.310;2022-08-19T08:25:43;7.85;;;4.60;;
11681;SDS011;5897;42.640;23.310;2022-08-19T08:28:10;8.40;;;4.60;;
11681;SDS011;5897;42.640;23.310;2022-08-19T08:30:37;7.28;;;4.30;;
11681;SDS011;5897;42.640;23.310;2022-08-19T08:33:06;6.75;;;4.60;;
11681;SDS011;5897;42.640;23.310;2022-08-19T08:35:33;5.05;;;3.80;;
11681;SDS011;5897;42.640;23.310;2022-08-19T08:38:01;6.07;;;3.92;;
11681;SDS011;5897;42.640;23.310;2022-08-19T08:40:30;9.68;;;3.75;;
11681;SDS011;5897;42.640;23.310;2022-08-19T08:43:06;8.10;;;3.55;;
11681;SDS011;5897;42.640;23.310;2022-08-19T08:45:34;5.35;;;3.60;;
11681;SDS011;5897;42.640;23.310;2022-08-19T08:48:10;4.30;;;3.90;;
11681;SDS011;5897;42.640;23.310;2022-08-19T08:50:43;7.38;;;3.60;;
11681;SDS011;5897;42.640;23.310;2022-08-19T08:53:16;8.88;;;3.92;;
11681;SDS011;5897;42.640;23.310;2022-08-19T08:55:44;8.38;;;3.55;;
11681;SDS011;5897;42.640;23.310;2022-08-19T08:58:14;4.20;;;3.28;;
11681;SDS011;5897;42.640;23.310;2022-08-19T09:00:47;6.95;;;3.03;;
11681;SDS011;5897;42.640;23.310;2022-08-19T09:03:17;4.78;;;3.25;;
11681;SDS011;5897;42.640;23.310;2022-08-19T09:05:48;5.95;;;3.40;;
11681;SDS011;5897;42.640;23.310;2022-08-19T09:08:26;4.82;;;3.60;;
11681;SDS011;5897;42.640;23.310;2022-08-19T09:10:59;5.00;;;2.88;;
11681;SDS011;5897;42.640;23.310;2022-08-19T09:13:33;3.95;;;3.45;;
11681;SDS011;5897;42.640;23.310;2022-08-19T09:16:09;6.07;;;3.80;;
11681;SDS011;5897;42.640;23.310;2022-08-19T09:18:39;4.97;;;3.80;;
11681;SDS011;5897;42.640;23.310;2022-08-19T09:21:08;5.57;;;3.42;;
11681;SDS011;5897;42.640;23.310;2022-08-19T09:23:34;5.13;;;3.65;;
11681;SDS011;5897;42.640;23.310;2022-08-19T09:26:05;7.20;;;3.53;;
11681;SDS011;5897;42.640;23.310;2022-08-19T09:28:35;3.88;;;3.35;;
11681;SDS011;5897;42.640;23.310;2022-08-19T09:31:02;4.60;;;3.10;;
11681;SDS011;5897;42.640;23.310;2022-08-19T09:33:29;3.97;;;3.20;;
11681;SDS011;5897;42.640;23.310;2022-08-19T09:36:07;3.80;;;2.97;;
11681;SDS011;5897;42.640;23.310;2022-08-19T09:38:36;4.20;;;2.97;;
11681;SDS011;5897;42.640;23.310;2022-08-19T09:41:07;6.00;;;2.78;;
11681;SDS011;5897;42.640;23.310;2022-08-19T09:43:36;4.22;;;3.20;;
11681;SDS011;5897;42.640;23.310;2022-08-19T09:46:04;5.55;;;2.72;;
11681;SDS011;5897;42.640;23.310;2022-08-19T09:48:33;3.88;;;2.67;;
11681;SDS011;5897;42.640;23.310;2022-08-19T09:51:03;3.15;;;2.10;;
11681;SDS011;5897;42.640;23.310;2022-08-19T09:53:31;3.40;;;2.58;;
11681;SDS011;5897;42.640;23.310;2022-08-19T09:55:58;3.05;;;2.60;;
11681;SDS011;5897;42.640;23.310;2022-08-19T09:58:25;4.80;;;2.78;;
11681;SDS011;5897;42.640;23.310;2022-08-19T10:00:54;6.93;;;3.03;;
11681;SDS011;5897;42.640;23.310;2022-08-19T10:03:21;4.43;;;3.20;;
11681;SDS011;5897;42.640;23.310;2022-08-19T10:05:48;5.00;;;3.00;;
11681;SDS011;5897;42.640;23.310;2022-08-19T10:08:15;5.03;;;2.55;;
11681;SDS011;5897;42.640;23.310;2022-08-19T10:10:43;4.65;;;2.95;;
11681;SDS011;5897;42.640;23.310;2022-08-19T10:13:11;4.60;;;2.90;;
11681;SDS011;5897;42.640;23.310;2022-08-19T10:15:38;3.95;;;3.13;;
11681;SDS011;5897;42.640;23.310;2022-08-19T10:18:07;4.25;;;3.53;;
11681;SDS011;5897;42.640;23.310;2022-08-19T10:20:34;3.83;;;3.00;;
11681;SDS011;5897;42.640;23.310;2022-08-19T10:23:02;5.57;;;2.90;;
11681;SDS011;5897;42.640;23.310;2022-08-19T10:25:29;3.75;;;2.88;;
11681;SDS011;5897;42.640;23.310;2022-08-19T10:27:56;4.65;;;3.10;;
11681;SDS011;5897;42.640;23.310;2022-08-19T10:30:22;4.28;;;3.10;;
11681;SDS011;5897;42.640;23.310;2022-08-19T10:32:49;3.60;;;2.92;;
11681;SDS011;5897;42.640;23.310;2022-08-19T10:35:17;3.60;;;2.90;;
11681;SDS011;5897;42.640;23.310;2022-08-19T10:37:44;3.75;;;2.80;;
11681;SDS011;5897;42.640;23.310;2022-08-19T10:40:11;6.68;;;3.08;;
11681;SDS011;5897;42.640;23.310;2022-08-19T10:42:38;4.55;;;3.13;;
11681;SDS011;5897;42.640;23.310;2022-08-19T10:45:05;5.57;;;3.05;;
11681;SDS011;5897;42.640;23.310;2022-08-19T10:47:34;5.55;;;3.20;;
11681;SDS011;5897;42.640;23.310;2022-08-19T10:50:02;4.07;;;3.30;;
11681;SDS011;5897;42.640;23.310;2022-08-19T10:52:48;3.78;;;3.08;;
11681;SDS011;5897;42.640;23.310;2022-08-19T10:55:16;6.32;;;3.22;;
11681;SDS011;5897;42.640;23.310;2022-08-19T10:58:02;5.30;;;3.22;;
11681;SDS011;5897;42.640;23.310;2022-08-19T11:00:28;5.53;;;3.10;;
11681;SDS011;5897;42.640;23.310;2022-08-19T11:02:56;6.00;;;3.50;;
11681;SDS011;5897;42.640;23.310;2022-08-19T11:05:23;4.88;;;3.13;;
11681;SDS011;5897;42.640;23.310;2022-08-19T11:07:51;4.85;;;3.10;;
11681;SDS011;5897;42.640;23.310;2022-08-19T11:10:18;3.30;;;2.97;;
11681;SDS011;5897;42.640;23.310;2022-08-19T11:12:46;3.42;;;3.10;;
11681;SDS011;5897;42.640;23.310;2022-08-19T11:15:13;3.97;;;3.00;;
11681;SDS011;5897;42.640;23.310;2022-08-19T11:17:40;6.13;;;3.17;;
11681;SDS011;5897;42.640;23.310;2022-08-19T11:20:09;3.42;;;3.10;;
11681;SDS011;5897;42.640;23.310;2022-08-19T11:22:37;3.65;;;3.20;;
11681;SDS011;5897;42.640;23.310;2022-08-19T11:25:06;4.63;;;3.63;;
11681;SDS011;5897;42.640;23.310;2022-08-19T11:27:37;3.55;;;3.00;;
11681;SDS011;5897;42.640;23.310;2022-08-19T11:30:07;6.47;;;3.33;;
11681;SDS011;5897;42.640;23.310;2022-08-19T11:32:34;4.80;;;3.08;;
11681;SDS011;5897;42.640;23.310;2022-08-19T11:35:01;4.93;;;3.08;;
11681;SDS011;5897;42.640;23.310;2022-08-19T11:37:28;3.22;;;2.90;;
11681;SDS011;5897;42.640;23.310;2022-08-19T11:39:55;3.80;;;3.10;;
11681;SDS011;5897;42.640;23.310;2022-08-19T11:42:23;4.95;;;3.45;;
11681;SDS011;5897;42.640;23.310;2022-08-19T11:45:08;6.60;;;3.20;;
11681;SDS011;5897;42.640;23.310;2022-08-19T11:47:35;6.10;;;3.10;;
11681;SDS011;5897;42.640;23.310;2022-08-19T11:50:04;4.60;;;3.20;;
11681;SDS011;5897;42.640;23.310;2022-08-19T11:52:31;4.68;;;3.28;;
11681;SDS011;5897;42.640;23.310;2022-08-19T11:54:58;6.93;;;3.40;;
11681;SDS011;5897;42.640;23.310;2022-08-19T11:57:26;6.50;;;3.25;;
11681;SDS011;5897;42.640;23.310;2022-08-19T11:59:53;6.30;;;3.63;;
11681;SDS011;5897;42.640;23.310;2022-08-19T12:02:20;5.93;;;3.28;;
11681;SDS011;5897;42.640;23.310;2022-08-19T12:04:46;6.22;;;3.42;;
11681;SDS011;5897;42.640;23.310;2022-08-19T12:07:13;11.60;;;3.10;;
11681;SDS011;5897;42.640;23.310;2022-08-19T12:09:40;3.90;;;3.00;;
11681;SDS011;5897;42.640;23.310;2022-08-19T12:12:07;4.03;;;3.15;;
11681;SDS011;5897;42.640;23.310;2022-08-19T12:14:36;3.80;;;3.10;;
11681;SDS011;5897;42.640;23.310;2022-08-19T12:17:02;4.03;;;3.40;;
11681;SDS011;5897;42.640;23.310;2022-08-19T12:19:32;6.30;;;3.30;;
11681;SDS011;5897;42.640;23.310;2022-08-19T12:21:59;6.68;;;3.55;;
11681;SDS011;5897;42.640;23.310;2022-08-19T12:24:30;4.35;;;3.30;;
11681;SDS011;5897;42.640;23.310;2022-08-19T12:26:57;7.68;;;3.35;;
11681;SDS011;5897;42.640;23.310;2022-08-19T12:29:26;4.50;;;3.00;;
11681;SDS011;5897;42.640;23.310;2022-08-19T12:31:56;4.97;;;3.30;;
11681;SDS011;5897;42.640;23.310;2022-08-19T12:34:27;4.30;;;3.20;;
11681;SDS011;5897;42.640;23.310;2022-08-19T12:36:56;5.00;;;3.40;;
11681;SDS011;5897;42.640;23.310;2022-08-19T12:39:23;5.28;;;3.55;;
11681;SDS011;5897;42.640;23.310;2022-08-19T12:41:50;4.25;;;3.20;;
11681;SDS011;5897;42.640;23.310;2022-08-19T12:44:17;4.72;;;3.20;;
11681;SDS011;5897;42.640;23.310;2022-08-19T12:46:44;4.43;;;3.15;;
11681;SDS011;5897;42.640;23.310;2022-08-19T12:49:12;3.67;;;3.10;;
11681;SDS011;5897;42.640;23.310;2022-08-19T12:51:39;3.50;;;3.20;;
11681;SDS011;5897;42.640;23.310;2022-08-19T12:54:05;4.10;;;3.13;;
11681;SDS011;5897;42.640;23.310;2022-08-19T12:56:32;6.15;;;3.50;;
11681;SDS011;5897;42.640;23.310;2022-08-19T12:59:00;4.00;;;2.92;;
11681;SDS011;5897;42.640;23.310;2022-08-19T13:01:28;6.43;;;3.53;;
11681;SDS011;5897;42.640;23.310;2022-08-19T13:03:57;5.25;;;3.20;;
11681;SDS011;5897;42.640;23.310;2022-08-19T13:06:26;5.68;;;3.17;;
11681;SDS011;5897;42.640;23.310;2022-08-19T13:08:53;4.53;;;3.28;;
11681;SDS011;5897;42.640;23.310;2022-08-19T13:11:20;6.95;;;3.47;;
11681;SDS011;5897;42.640;23.310;2022-08-19T13:13:49;5.03;;;3.25;;
11681;SDS011;5897;42.640;23.310;2022-08-19T13:16:18;9.57;;;3.65;;
11681;SDS011;5897;42.640;23.310;2022-08-19T13:18:47;6.85;;;3.33;;
11681;SDS011;5897;42.640;23.310;2022-08-19T13:21:15;5.78;;;3.22;;
11681;SDS011;5897;42.640;23.310;2022-08-19T13:23:43;4.38;;;3.38;;
11681;SDS011;5897;42.640;23.310;2022-08-19T13:26:10;6.70;;;3.08;;
11681;SDS011;5897;42.640;23.310;2022-08-19T13:28:38;5.80;;;3.20;;
11681;SDS011;5897;42.640;23.310;2022-08-19T13:31:23;5.50;;;3.33;;
11681;SDS011;5897;42.640;23.310;2022-08-19T13:34:11;4.82;;;3.17;;
11681;SDS011;5897;42.640;23.310;2022-08-19T13:36:38;3.60;;;3.20;;
11681;SDS011;5897;42.640;23.310;2022-08-19T13:39:07;6.18;;;3.45;;
11681;SDS011;5897;42.640;23.310;2022-08-19T13:41:34;4.75;;;3.40;;
11681;SDS011;5897;42.640;23.310;2022-08-19T13:44:01;3.65;;;3.20;;
11681;SDS011;5897;42.640;23.310;2022-08-19T13:46:28;4.53;;;3.05;;
11681;SDS011;5897;42.640;23.310;2022-08-19T13:48:55;4.82;;;3.45;;
11681;SDS011;5897;42.640;23.310;2022-08-19T13:51:22;4.70;;;3.15;;
11681;SDS011;5897;42.640;23.310;2022-08-19T13:53:49;4.60;;;3.20;;
11681;SDS011;5897;42.640;23.310;2022-08-19T13:56:18;4.72;;;3.85;;
11681;SDS011;5897;42.640;23.310;2022-08-19T13:58:45;3.80;;;3.20;;
11681;SDS011;5897;42.640;23.310;2022-08-19T14:01:12;4.20;;;3.22;;
11681;SDS011;5897;42.640;23.310;2022-08-19T14:03:45;6.38;;;3.28;;
11681;SDS011;5897;42.640;23.310;2022-08-19T14:06:12;4.32;;;3.25;;
11681;SDS011;5897;42.640;23.310;2022-08-19T14:08:39;4.18;;;3.20;;
11681;SDS011;5897;42.640;23.310;2022-08-19T14:11:06;6.25;;;3.30;;
11681;SDS011;5897;42.640;23.310;2022-08-19T14:13:35;5.07;;;3.35;;
11681;SDS011;5897;42.640;23.310;2022-08-19T14:16:05;3.67;;;3.38;;
11681;SDS011;5897;42.640;23.310;2022-08-19T14:18:33;5.20;;;3.50;;
11681;SDS011;5897;42.640;23.310;2022-08-19T14:21:00;3.90;;;3.50;;
11681;SDS011;5897;42.640;23.310;2022-08-19T14:23:28;3.97;;;3.60;;
11681;SDS011;5897;42.640;23.310;2022-08-19T14:26:02;5.55;;;3.58;;
11681;SDS011;5897;42.640;23.310;2022-08-19T14:28:29;4.13;;;3.47;;
11681;SDS011;5897;42.640;23.310;2022-08-19T14:30:57;3.47;;;3.17;;
11681;SDS011;5897;42.640;23.310;2022-08-19T14:33:24;6.82;;;3.30;;
11681;SDS011;5897;42.640;23.310;2022-08-19T14:35:51;4.32;;;3.17;;
11681;SDS011;5897;42.640;23.310;2022-08-19T14:38:18;7.53;;;3.60;;
11681;SDS011;5897;42.640;23.310;2022-08-19T14:40:45;5.18;;;3.10;;
11681;SDS011;5897;42.640;23.310;2022-08-19T14:43:12;4.68;;;3.47;;
11681;SDS011;5897;42.640;23.310;2022-08-19T14:45:38;3.63;;;3.20;;
11681;SDS011;5897;42.640;23.310;2022-08-19T14:48:07;6.85;;;3.28;;
11681;SDS011;5897;42.640;23.310;2022-08-19T14:50:35;4.57;;;3.65;;
11681;SDS011;5897;42.640;23.310;2022-08-19T14:53:04;5.97;;;3.70;;
11681;SDS011;5897;42.640;23.310;2022-08-19T14:55:32;4.60;;;3.45;;